createdAt,value
2023-05-24T04:05:55.117Z,1019.95
2023-05-24T04:06:55.018Z,1019.97
2023-05-24T04:07:55.172Z,1019.93
2023-05-24T04:10:54.823Z,1020.04
2023-05-24T04:12:38.158Z,1020.03
2023-05-24T04:13:38.105Z,1020.03
2023-05-24T04:15:38.074Z,1020.02
2023-05-24T04:16:37.992Z,1019.99
2023-05-24T04:17:38.100Z,1019.98
2023-05-24T04:18:38.000Z,1020.02
2023-05-24T04:19:37.886Z,1020.02
2023-05-24T04:20:37.821Z,1020.02
2023-05-24T04:21:37.743Z,1020.04
2023-05-24T04:22:37.679Z,1020.05
2023-05-24T04:23:37.633Z,1020.07
2023-05-24T04:24:37.615Z,1020.08
2023-05-24T04:25:37.534Z,1020.03
2023-05-24T04:26:37.487Z,1020.04
2023-05-24T04:27:37.459Z,1020.10
2023-05-24T04:28:37.390Z,1020.03
2023-05-24T04:29:37.359Z,1020.08
2023-05-24T04:30:37.298Z,1020.11
2023-05-24T04:31:37.329Z,1020.14
2023-05-24T04:32:37.249Z,1020.13
2023-05-24T04:33:37.164Z,1020.13
2023-05-24T04:34:37.113Z,1020.17
2023-05-24T04:35:39.694Z,1020.18
2023-05-24T04:36:37.024Z,1020.15
2023-05-24T04:37:37.008Z,1020.16
2023-05-24T04:39:33.141Z,1020.15
2023-05-24T04:42:22.053Z,1020.12
2023-05-24T04:43:22.020Z,1020.12
2023-05-24T04:44:21.962Z,1020.09
2023-05-24T04:45:21.929Z,1020.11
2023-05-24T04:50:31.667Z,1020.20
2023-05-24T04:51:31.615Z,1020.20
2023-05-24T04:52:31.566Z,1020.19
2023-05-24T04:54:39.951Z,1020.26
2023-05-24T04:55:39.885Z,1020.28
2023-05-24T04:56:39.852Z,1020.31
2023-05-24T04:57:39.796Z,1020.29
2023-05-24T04:58:39.746Z,1020.32
2023-05-24T04:59:39.697Z,1020.33
2023-05-24T05:00:39.759Z,1020.36
2023-05-24T05:01:39.644Z,1020.36
2023-05-24T05:02:39.638Z,1020.39
2023-05-24T05:03:39.615Z,1020.40
2023-05-24T05:04:39.467Z,1020.40
2023-05-24T05:05:39.417Z,1020.37
2023-05-24T05:06:39.372Z,1020.39
2023-05-24T05:07:39.327Z,1020.44
2023-05-24T05:08:39.284Z,1020.43
2023-05-24T05:09:39.235Z,1020.44
2023-05-24T05:11:51.621Z,1020.42
2023-05-24T05:12:51.559Z,1020.42
2023-05-24T05:13:51.509Z,1020.40
2023-05-24T05:14:51.471Z,1020.43
2023-05-24T05:15:51.427Z,1020.40
2023-05-24T05:16:54.112Z,1020.37
2023-05-24T05:17:51.407Z,1020.38
2023-05-24T05:18:51.289Z,1020.35
2023-05-24T05:20:51.192Z,1020.34
2023-05-24T05:21:51.139Z,1020.33
2023-05-24T05:22:51.096Z,1020.35
2023-05-24T05:23:51.059Z,1020.37
2023-05-24T05:24:51.002Z,1020.32
2023-05-24T05:25:50.953Z,1020.34
2023-05-24T05:26:50.909Z,1020.35
2023-05-24T05:27:50.884Z,1020.43
2023-05-24T05:28:50.823Z,1020.38
2023-05-24T05:29:50.778Z,1020.39
2023-05-24T05:30:50.750Z,1020.40
2023-05-24T05:31:50.719Z,1020.45
2023-05-24T17:00:54.245Z,1019.76
2023-05-24T17:01:54.113Z,1019.78
2023-05-24T17:02:53.974Z,1019.78
2023-05-24T17:03:53.970Z,1019.75
2023-05-24T17:04:53.839Z,1019.78
2023-05-24T20:17:18.582Z,1020.58
2023-05-24T20:18:18.516Z,1020.58
2023-05-24T20:19:18.457Z,1020.60
2023-05-24T20:20:18.468Z,1020.60
2023-05-24T20:21:18.402Z,1020.64
2023-05-24T20:22:18.383Z,1020.61
2023-05-24T20:23:18.486Z,1020.65
2023-05-24T20:24:18.275Z,1020.64
2023-05-24T20:25:18.198Z,1020.65
2023-05-24T20:26:18.146Z,1020.69
2023-05-24T20:27:18.110Z,1020.67
2023-05-24T20:28:29.563Z,1020.70
2023-05-24T20:29:18.028Z,1020.71
2023-05-24T20:30:17.994Z,1020.68
2023-05-24T20:31:17.940Z,1020.70
2023-05-24T20:32:17.888Z,1020.74
2023-05-24T20:33:17.865Z,1020.74
2023-05-24T20:34:17.805Z,1020.73
2023-05-24T20:35:17.766Z,1020.77
2023-05-24T20:36:17.721Z,1020.75
2023-05-24T20:37:17.689Z,1020.75
2023-05-24T20:38:17.633Z,1020.79
2023-05-24T20:39:17.588Z,1020.80
2023-05-24T20:40:17.563Z,1020.80
2023-05-24T20:42:03.538Z,1020.80
2023-05-24T20:43:00.841Z,1020.77
2023-05-24T20:44:00.797Z,1020.81
2023-05-24T20:45:00.745Z,1020.82
2023-05-24T20:46:00.732Z,1020.81
2023-05-24T20:47:00.673Z,1020.79
2023-05-24T20:48:00.661Z,1020.81
2023-05-24T20:49:00.780Z,1020.83
2023-05-24T20:50:00.543Z,1020.81
2023-05-24T20:51:00.496Z,1020.87
2023-05-24T20:52:00.450Z,1020.84
2023-05-24T20:53:00.399Z,1020.89
2023-05-24T20:54:00.361Z,1020.88
2023-05-24T20:55:00.326Z,1020.88
2023-05-24T20:56:00.272Z,1020.92
2023-05-24T20:57:00.231Z,1020.91
2023-05-24T20:58:00.184Z,1020.87
2023-05-24T20:59:00.164Z,1020.87
2023-05-24T21:00:00.130Z,1020.90
2023-05-24T21:01:00.096Z,1020.91
2023-05-24T21:02:00.044Z,1020.93
2023-05-24T21:03:00.121Z,1020.91
2023-05-24T21:03:59.921Z,1020.95
2023-05-24T21:04:59.897Z,1020.96
2023-05-24T21:05:59.842Z,1020.98
2023-05-24T21:06:59.798Z,1020.99
2023-05-24T21:07:59.745Z,1020.97
2023-05-24T21:08:59.703Z,1021.01
2023-05-24T21:09:59.660Z,1020.97
2023-05-24T21:10:59.622Z,1021.02
2023-05-24T21:11:59.568Z,1021.02
2023-05-24T21:12:59.550Z,1021.02
2023-05-24T21:13:59.495Z,1021.02
2023-05-24T21:14:59.447Z,1020.99
2023-05-24T21:15:59.402Z,1021.05
2023-05-24T21:16:59.416Z,1020.92
2023-05-24T21:17:59.412Z,1021.04
2023-05-24T21:18:59.264Z,1021.01
2023-05-24T21:19:59.225Z,1021.02
2023-05-24T21:20:59.195Z,1021.00
2023-05-24T21:21:59.141Z,1021.02
2023-05-24T21:22:59.116Z,1021.01
2023-05-24T21:23:59.045Z,1021.02
2023-05-24T21:24:59.026Z,1021.04
2023-05-24T21:25:58.960Z,1021.02
2023-05-24T21:26:58.911Z,1021.04
2023-05-24T21:27:58.872Z,1021.01
2023-05-24T21:28:58.855Z,1021.03
2023-05-24T21:29:58.789Z,1021.02
2023-05-24T21:30:58.786Z,1021.05
2023-05-24T21:31:58.694Z,1021.03
2023-05-24T21:32:58.755Z,1021.08
2023-05-24T21:33:58.606Z,1021.07
2023-05-24T21:34:58.562Z,1021.05
2023-05-24T21:35:58.530Z,1021.06
2023-05-24T21:36:58.505Z,1021.08
2023-05-24T21:37:58.431Z,1021.04
2023-05-24T21:38:58.425Z,1021.10
2023-05-24T21:39:58.408Z,1021.08
2023-05-24T21:40:58.306Z,1021.11
2023-05-24T21:41:58.259Z,1021.08
2023-05-24T21:42:58.212Z,1021.10
2023-05-24T21:43:58.170Z,1021.12
2023-05-24T21:44:58.127Z,1021.12
2023-05-24T21:45:58.084Z,1021.13
2023-05-24T21:46:58.102Z,1021.14
2023-05-24T21:47:58.102Z,1021.14
2023-05-24T21:48:57.958Z,1021.16
2023-05-24T21:49:57.906Z,1021.16
2023-05-24T21:50:57.880Z,1021.16
2023-05-24T21:51:57.817Z,1021.15
2023-05-24T21:52:57.874Z,1021.18
2023-05-24T21:53:57.730Z,1021.17
2023-05-24T21:54:57.687Z,1021.20
2023-05-24T21:55:57.642Z,1021.21
2023-05-24T21:56:57.594Z,1021.25
2023-05-24T21:57:57.564Z,1021.21
2023-05-24T21:58:57.522Z,1021.25
2023-05-24T21:59:57.472Z,1021.24
2023-05-24T22:00:57.440Z,1021.25
2023-05-24T22:01:57.436Z,1021.29
2023-05-24T22:02:57.396Z,1021.27
2023-05-24T22:03:57.461Z,1021.30
2023-05-24T22:04:57.242Z,1021.32
2023-05-24T22:05:57.202Z,1021.31
2023-05-24T22:06:57.158Z,1021.30
2023-05-24T22:07:57.126Z,1021.36
2023-05-24T22:08:57.095Z,1021.35
2023-05-24T22:09:57.138Z,1021.30
2023-05-24T22:10:57.005Z,1021.33
2023-05-24T22:11:56.987Z,1021.32
2023-05-24T22:12:56.910Z,1021.34
2023-05-24T22:13:56.854Z,1021.35
2023-05-24T22:14:56.808Z,1021.39
2023-05-24T22:15:56.819Z,1021.40
2023-05-24T22:16:56.733Z,1021.40
2023-05-24T22:17:56.749Z,1021.39
2023-05-24T22:18:56.632Z,1021.34
2023-05-24T22:19:56.611Z,1021.38
2023-05-24T22:20:56.535Z,1021.36
2023-05-24T22:21:56.504Z,1021.40
2023-05-24T22:22:56.451Z,1021.44
2023-05-24T22:23:56.401Z,1021.40
2023-05-24T22:24:56.433Z,1021.44
2023-05-24T22:25:56.321Z,1021.43
2023-05-24T22:26:56.273Z,1021.40
2023-05-24T22:27:56.233Z,1021.43
2023-05-24T22:28:56.183Z,1021.45
2023-05-24T22:29:56.144Z,1021.43
2023-05-24T22:30:56.096Z,1021.46
2023-05-24T22:31:56.152Z,1021.40
2023-05-24T22:32:56.050Z,1021.39
2023-05-24T22:33:55.963Z,1021.45
2023-05-24T22:34:55.920Z,1021.49
2023-05-24T22:35:55.884Z,1021.43
2023-05-24T22:36:55.830Z,1021.40
2023-05-24T22:37:55.790Z,1021.39
2023-05-24T22:38:55.753Z,1021.43
2023-05-24T22:39:55.704Z,1021.40
2023-05-24T22:40:55.688Z,1021.38
2023-05-24T22:41:55.616Z,1021.45
2023-05-24T22:42:55.570Z,1021.42
2023-05-24T22:43:55.525Z,1021.39
2023-05-24T22:44:55.476Z,1021.41
2023-05-24T22:45:55.442Z,1021.41
2023-05-24T22:46:55.430Z,1021.42
2023-05-24T22:47:55.419Z,1021.42
2023-05-24T22:48:55.298Z,1021.42
2023-05-24T22:49:55.263Z,1021.45
2023-05-24T22:50:55.214Z,1021.45
2023-05-24T22:51:55.165Z,1021.47
2023-05-24T22:52:55.123Z,1021.48
2023-05-24T22:53:55.079Z,1021.48
2023-05-24T22:54:55.030Z,1021.49
2023-05-24T22:55:54.987Z,1021.54
2023-05-24T22:56:54.978Z,1021.52
2023-05-24T22:57:54.902Z,1021.49
2023-05-24T22:58:54.857Z,1021.50
2023-05-24T22:59:54.818Z,1021.51
2023-05-24T23:00:54.764Z,1021.49
2023-05-24T23:01:54.804Z,1021.53
2023-05-24T23:02:54.730Z,1021.53
2023-05-24T23:03:59.978Z,1021.55
2023-05-24T23:04:54.630Z,1021.52
2023-05-24T23:05:54.541Z,1021.53
2023-05-24T23:06:54.494Z,1021.52
2023-05-24T23:07:54.452Z,1021.53
2023-05-24T23:08:54.408Z,1021.54
2023-05-24T23:09:54.368Z,1021.49
2023-05-24T23:10:54.326Z,1021.50
2023-05-24T23:11:54.280Z,1021.54
2023-05-24T23:12:54.261Z,1021.54
2023-05-24T23:13:54.184Z,1021.55
2023-05-24T23:14:54.136Z,1021.53
2023-05-24T23:15:54.095Z,1021.54
2023-05-24T23:16:54.071Z,1021.59
2023-05-24T23:17:54.034Z,1021.57
2023-05-24T23:18:53.958Z,1021.56
2023-05-24T23:19:54.017Z,1021.56
2023-05-24T23:20:53.868Z,1021.58
2023-05-24T23:21:53.824Z,1021.61
2023-05-24T23:22:53.777Z,1021.56
2023-05-24T23:23:53.733Z,1021.59
2023-05-24T23:24:53.691Z,1021.58
